Time;durP1;ratioP1;P1;durP2;ratioP2;P2;SDS_P1;SDS_P2;PMS_P1;PMS_P2;Temp;Humidity;BMP_temperature;BMP_pressure;BME280_temperature;BME280_humidity;BME280_pressure;Samples;Min_cycle;Max_cycle;Signal;HPM_P1;HPM_P2
2020/12/30 14:38:58;;;;;;;3.15;1.90;;;9.70;79.20;;;;;;5083628;28;20425;-50
2020/12/30 14:41:24;;;;;;;2.53;1.73;;;8.60;76.70;;;;;;5084738;28;20020;-51
2020/12/30 14:43:49;;;;;;;1.15;0.98;;;8.20;77.50;;;;;;5046928;27;20371;-50
2020/12/30 14:46:15;;;;;;;4.63;1.50;;;8.00;77.80;;;;;;5030253;28;20109;-51
2020/12/30 14:48:41;;;;;;;5.75;1.73;;;8.00;78.00;;;;;;5030224;28;20022;-51
2020/12/30 14:51:08;;;;;;;3.33;1.88;;;7.90;78.00;;;;;;5029870;28;20034;-51
2020/12/30 14:53:33;;;;;;;1.95;1.45;;;7.90;78.00;;;;;;5029139;28;20029;-51
2020/12/30 14:55:59;;;;;;;4.18;2.05;;;7.90;77.90;;;;;;5029949;28;20087;-51
2020/12/30 14:58:25;;;;;;;2.30;1.38;;;7.90;77.80;;;;;;5029623;28;20128;-50
2020/12/30 15:00:50;;;;;;;2.58;1.92;;;7.90;78.60;;;;;;5032153;28;20371;-50
2020/12/30 15:03:16;;;;;;;2.80;1.92;;;7.90;77.80;;;;;;5037121;28;20029;-51
2020/12/30 15:05:43;;;;;;;1.40;1.30;;;7.90;77.70;;;;;;5029077;28;20487;-51
2020/12/30 15:08:10;;;;;;;2.92;1.98;;;7.90;77.90;;;;;;5031723;28;20034;-51
2020/12/30 15:10:35;;;;;;;2.47;1.67;;;7.90;77.80;;;;;;5016234;28;20094;-51
2020/12/30 15:13:01;;;;;;;2.75;1.63;;;7.90;77.80;;;;;;5029530;28;20526;-51
2020/12/30 15:15:27;;;;;;;7.07;1.50;;;7.90;77.80;;;;;;5029241;28;20029;-51
2020/12/30 15:17:52;;;;;;;4.55;2.70;;;7.90;77.90;;;;;;5029499;28;20033;-51
2020/12/30 15:20:18;;;;;;;2.65;1.67;;;7.90;77.90;;;;;;5016114;28;20020;-51
2020/12/30 15:22:43;;;;;;;2.13;1.65;;;7.90;77.90;;;;;;5028807;28;20359;-50
2020/12/30 15:25:09;;;;;;;7.15;2.47;;;7.90;78.10;;;;;;5029751;28;20046;-51
2020/12/30 15:27:35;;;;;;;2.58;1.67;;;7.90;78.10;;;;;;5015014;28;20464;-50
2020/12/30 15:30:00;;;;;;;2.30;1.95;;;7.90;78.20;;;;;;5021445;28;20036;-51
2020/12/30 15:32:26;;;;;;;2.58;1.73;;;7.90;78.20;;;;;;5026306;28;20028;-50
2020/12/30 15:34:53;;;;;;;3.60;2.03;;;7.90;78.30;;;;;;5027675;28;20030;-51
2020/12/30 15:37:19;;;;;;;3.42;2.20;;;7.90;78.40;;;;;;5023864;28;20030;-51
2020/12/30 15:39:45;;;;;;;3.03;2.00;;;7.90;78.40;;;;;;5028839;28;20026;-50
2020/12/30 15:42:11;;;;;;;4.35;2.30;;;7.90;78.60;;;;;;5028152;28;20033;-51
2020/12/30 15:44:37;;;;;;;5.40;2.17;;;7.90;78.70;;;;;;5025038;28;20022;-50
2020/12/30 15:47:03;;;;;;;4.05;2.40;;;7.80;78.70;;;;;;5025452;28;20199;-51
2020/12/30 15:49:28;;;;;;;1.58;0.65;;;7.90;78.70;;;;;;5019328;28;20392;-50
2020/12/30 15:51:55;;;;;;;3.00;1.95;;;7.80;78.70;;;;;;5015090;28;20030;-51
2020/12/30 15:54:21;;;;;;;3.22;1.85;;;7.80;78.70;;;;;;5015335;28;20022;-50
2020/12/30 15:56:50;;;;;;;2.85;1.85;;;7.80;78.80;;;;;;5015718;28;20442;-51
2020/12/30 15:59:16;;;;;;;4.35;2.45;;;7.90;79.00;;;;;;5013060;28;20046;-50
2020/12/30 16:01:43;;;;;;;3.88;2.30;;;7.80;79.00;;;;;;5015121;28;20026;-50
2020/12/30 16:04:09;;;;;;;6.68;3.28;;;7.90;79.10;;;;;;5015056;28;20037;-51
2020/12/30 16:06:36;;;;;;;3.97;2.63;;;7.80;79.20;;;;;;5012378;28;20428;-50
2020/12/30 16:09:02;;;;;;;4.20;2.17;;;7.80;79.30;;;;;;5015406;28;20423;-50
2020/12/30 16:11:27;;;;;;;2.78;2.08;;;7.80;79.30;;;;;;4998448;28;20479;-50
2020/12/30 16:13:53;;;;;;;2.47;2.00;;;7.80;79.40;;;;;;4996466;28;20030;-51
2020/12/30 16:16:20;;;;;;;4.45;2.80;;;7.80;79.50;;;;;;4996258;28;20029;-50
2020/12/30 16:18:45;;;;;;;4.63;1.88;;;7.80;79.60;;;;;;5006629;28;20533;-50
2020/12/30 16:21:17;;;;;;;3.33;2.25;;;7.80;79.60;;;;;;4996376;28;20117;-51
2020/12/30 16:23:42;;;;;;;2.83;2.05;;;7.80;79.60;;;;;;4996155;28;20108;-51
2020/12/30 16:26:12;;;;;;;3.33;2.20;;;7.80;79.60;;;;;;4995862;28;20065;-50
2020/12/30 16:28:38;;;;;;;1.52;1.20;;;7.80;79.70;;;;;;4998580;28;20104;-51
2020/12/30 16:31:04;;;;;;;2.33;1.38;;;7.80;79.80;;;;;;5013204;28;20179;-51
2020/12/30 16:33:29;;;;;;;4.60;2.85;;;7.80;79.90;;;;;;5011785;28;20036;-51
2020/12/30 16:35:55;;;;;;;10.57;3.03;;;7.80;79.90;;;;;;5015010;28;20034;-51
2020/12/30 16:38:21;;;;;;;5.47;2.55;;;7.80;80.00;;;;;;5012470;28;20467;-50
2020/12/30 16:40:47;;;;;;;8.45;3.33;;;7.80;80.10;;;;;;5003110;28;20088;-50
2020/12/30 16:43:12;;;;;;;5.03;2.80;;;7.80;80.10;;;;;;5014561;28;20026;-50
2020/12/30 16:45:38;;;;;;;4.57;3.30;;;7.80;80.10;;;;;;5015306;28;20507;-50
2020/12/30 16:48:04;;;;;;;3.50;2.70;;;7.70;80.10;;;;;;5014906;28;20026;-50
2020/12/30 16:50:29;;;;;;;4.03;2.80;;;7.80;80.30;;;;;;5012713;28;20034;-51
2020/12/30 16:52:55;;;;;;;5.95;2.78;;;7.70;80.30;;;;;;5014595;28;20034;-50
2020/12/30 16:55:20;;;;;;;5.30;2.85;;;7.80;80.30;;;;;;4996168;28;20031;-51
2020/12/30 16:57:46;;;;;;;5.13;3.05;;;7.80;80.30;;;;;;4995119;28;20073;-51
2020/12/30 17:00:12;;;;;;;4.07;2.85;;;7.70;80.40;;;;;;5009783;28;20026;-50
2020/12/30 17:02:38;;;;;;;4.28;2.95;;;7.80;80.50;;;;;;5014208;28;20041;-51
2020/12/30 17:05:04;;;;;;;5.18;3.15;;;7.80;80.60;;;;;;5012524;28;20460;-51
2020/12/30 17:07:32;;;;;;;4.35;2.80;;;7.80;80.60;;;;;;5014139;28;20037;-51
2020/12/30 17:09:57;;;;;;;4.65;2.97;;;7.70;80.60;;;;;;5006429;28;20100;-50
2020/12/30 17:12:24;;;;;;;5.95;3.30;;;7.70;80.60;;;;;;5014472;28;20117;-51
2020/12/30 17:14:49;;;;;;;3.58;2.67;;;7.70;80.70;;;;;;5013915;28;20022;-50
2020/12/30 17:17:15;;;;;;;5.10;2.97;;;7.70;80.80;;;;;;5013558;28;20109;-51
2020/12/30 17:19:41;;;;;;;7.07;3.22;;;7.70;80.80;;;;;;5011689;28;20025;-51
2020/12/30 17:22:06;;;;;;;9.27;3.10;;;7.80;80.90;;;;;;5016781;28;20025;-51
2020/12/30 17:24:32;;;;;;;4.82;3.20;;;7.70;80.80;;;;;;5013948;28;20473;-51
2020/12/30 17:27:02;;;;;;;4.20;3.15;;;7.70;80.90;;;;;;5014480;28;20058;-50
2020/12/30 17:29:28;;;;;;;5.75;2.63;;;7.70;80.90;;;;;;5009343;28;20029;-50
2020/12/30 17:31:55;;;;;;;6.55;3.92;;;7.70;81.10;;;;;;4994230;28;20407;-50
2020/12/30 17:34:22;;;;;;;6.90;3.60;;;7.70;81.00;;;;;;5011636;28;20029;-50
2020/12/30 17:36:48;;;;;;;4.28;3.45;;;7.70;81.10;;;;;;5003452;28;20030;-51
2020/12/30 17:39:15;;;;;;;3.97;3.00;;;7.70;81.20;;;;;;4999675;28;20336;-50
2020/12/30 17:41:41;;;;;;;8.60;3.42;;;7.70;81.30;;;;;;5014203;28;20041;-51
2020/12/30 17:44:09;;;;;;;5.18;3.05;;;7.70;81.30;;;;;;5014238;28;20034;-51
2020/12/30 17:46:35;;;;;;;6.40;3.35;;;7.70;81.30;;;;;;5012829;28;20136;-50
2020/12/30 17:49:01;;;;;;;6.63;3.38;;;7.70;81.30;;;;;;5013653;28;20486;-51
2020/12/30 17:51:30;;;;;;;8.95;3.35;;;7.70;81.40;;;;;;5013686;28;20026;-50
2020/12/30 17:53:56;;;;;;;6.60;3.55;;;7.70;81.40;;;;;;5010316;28;20362;-50
2020/12/30 17:56:22;;;;;;;5.70;3.03;;;7.70;81.50;;;;;;5002779;28;20027;-51
2020/12/30 17:58:47;;;;;;;8.93;3.90;;;7.70;81.50;;;;;;5010876;28;20042;-51
2020/12/30 18:01:13;;;;;;;6.53;3.42;;;7.70;81.50;;;;;;5027242;28;20022;-50
2020/12/30 18:03:39;;;;;;;6.75;3.80;;;7.70;81.60;;;;;;5020262;28;20025;-50
2020/12/30 18:06:05;;;;;;;6.07;3.45;;;7.70;81.60;;;;;;5015177;28;20336;-51
2020/12/30 18:08:31;;;;;;;9.65;3.72;;;7.70;81.70;;;;;;5020779;28;20028;-51
2020/12/30 18:10:57;;;;;;;4.53;3.65;;;7.70;81.70;;;;;;5021213;28;20112;-50
2020/12/30 18:13:23;;;;;;;16.92;4.53;;;7.70;81.70;;;;;;5036947;28;20455;-50
2020/12/30 18:15:49;;;;;;;4.80;3.38;;;7.70;81.70;;;;;;5012734;28;20030;-50
2020/12/30 18:18:15;;;;;;;7.55;3.60;;;7.70;81.80;;;;;;5021780;28;20036;-51
2020/12/30 18:20:42;;;;;;;6.22;3.20;;;7.70;81.80;;;;;;5020681;28;20446;-51
2020/12/30 18:23:07;;;;;;;4.38;3.25;;;7.70;82.00;;;;;;5027471;28;20025;-51
2020/12/30 18:25:33;;;;;;;5.72;3.58;;;7.70;82.00;;;;;;5016078;28;20472;-51
2020/12/30 18:27:59;;;;;;;3.97;3.08;;;7.70;82.00;;;;;;5018843;28;20033;-51
2020/12/30 18:30:25;;;;;;;7.68;4.13;;;7.70;82.10;;;;;;5021446;28;20512;-50
2020/12/30 18:32:52;;;;;;;8.65;3.88;;;7.70;82.00;;;;;;5022077;28;20038;-51
2020/12/30 18:35:18;;;;;;;5.72;3.30;;;7.70;82.00;;;;;;5017449;28;20030;-50
2020/12/30 18:37:44;;;;;;;8.55;4.18;;;7.70;82.10;;;;;;5019741;28;20026;-51
2020/12/30 18:40:10;;;;;;;7.07;3.70;;;7.60;82.10;;;;;;5024442;28;20040;-50
2020/12/30 18:42:37;;;;;;;5.93;3.47;;;7.70;82.20;;;;;;5020547;28;20387;-51
2020/12/30 18:45:08;;;;;;;6.53;3.90;;;7.60;82.10;;;;;;5015560;28;20034;-51
2020/12/30 18:47:37;;;;;;;6.40;3.40;;;7.70;82.20;;;;;;5020205;28;20436;-51
2020/12/30 18:50:05;;;;;;;5.55;3.70;;;7.70;82.30;;;;;;5020973;28;20022;-51
2020/12/30 18:52:37;;;;;;;8.13;3.97;;;7.70;82.30;;;;;;5015582;28;20022;-50
2020/12/30 18:55:06;;;;;;;16.25;5.18;;;7.60;82.20;;;;;;5020156;28;20018;-50
2020/12/30 18:57:35;;;;;;;10.32;4.68;;;7.60;82.30;;;;;;5017795;28;20030;-51
2020/12/30 19:00:05;;;;;;;8.75;4.53;;;7.60;82.30;;;;;;5022766;28;20032;-50
2020/12/30 19:02:31;;;;;;;9.07;4.68;;;7.60;82.40;;;;;;5012590;28;20030;-50
2020/12/30 19:04:56;;;;;;;11.70;5.30;;;7.60;82.40;;;;;;5010631;28;20361;-50
2020/12/30 19:07:22;;;;;;;10.98;5.05;;;7.60;82.40;;;;;;5015045;28;20033;-51
2020/12/30 19:09:48;;;;;;;11.60;5.22;;;7.60;82.40;;;;;;5020208;28;20179;-50
2020/12/30 19:12:13;;;;;;;7.13;3.97;;;7.60;82.50;;;;;;5028476;28;20481;-50
2020/12/30 19:14:39;;;;;;;8.90;4.32;;;7.60;82.50;;;;;;5019199;28;20666;-51
2020/12/30 19:17:05;;;;;;;8.55;3.75;;;7.60;82.50;;;;;;5005248;28;20034;-51
2020/12/30 19:19:31;;;;;;;5.68;3.75;;;7.60;82.50;;;;;;5016457;28;20034;-51
2020/12/30 19:21:58;;;;;;;6.70;4.05;;;7.60;82.60;;;;;;5016125;28;20037;-51
2020/12/30 19:24:24;;;;;;;4.65;3.58;;;7.60;82.60;;;;;;5026025;28;20037;-51
2020/12/30 19:26:50;;;;;;;7.43;4.10;;;7.60;82.70;;;;;;5016490;28;20026;-51
2020/12/30 19:29:16;;;;;;;6.72;3.75;;;7.60;82.70;;;;;;5023584;28;20026;-51
2020/12/30 19:31:42;;;;;;;7.38;3.33;;;7.60;82.70;;;;;;5017810;28;20052;-51
2020/12/30 19:34:08;;;;;;;8.10;4.18;;;7.60;82.70;;;;;;5024827;28;20432;-51
2020/12/30 19:36:34;;;;;;;8.32;3.85;;;7.60;82.80;;;;;;5023284;28;20108;-51
2020/12/30 19:39:01;;;;;;;7.50;4.03;;;7.60;82.80;;;;;;5023647;28;20426;-51
2020/12/30 19:41:29;;;;;;;9.50;4.10;;;7.60;82.80;;;;;;5017446;28;20080;-50
2020/12/30 19:43:55;;;;;;;7.53;4.53;;;7.60;82.90;;;;;;5019390;28;20037;-51
2020/12/30 19:46:21;;;;;;;8.32;4.38;;;7.60;82.90;;;;;;5026124;28;20085;-50
2020/12/30 19:48:47;;;;;;;7.00;4.30;;;7.60;82.90;;;;;;5022539;28;20030;-51
2020/12/30 19:51:13;;;;;;;6.10;4.07;;;7.60;82.90;;;;;;5025321;28;20435;-51
2020/12/30 19:53:39;;;;;;;7.32;3.53;;;7.60;82.90;;;;;;5021936;28;20037;-50
2020/12/30 19:56:12;;;;;;;7.97;4.00;;;7.60;83.00;;;;;;5023985;28;20034;-51
2020/12/30 19:58:42;;;;;;;6.18;3.97;;;7.60;83.00;;;;;;5040998;28;20029;-51
2020/12/30 20:01:09;;;;;;;6.45;4.05;;;7.60;83.00;;;;;;5018357;28;20108;-51
2020/12/30 20:03:35;;;;;;;6.70;4.38;;;7.60;83.00;;;;;;5030197;28;20033;-51
2020/12/30 20:06:02;;;;;;;7.95;3.95;;;7.60;83.10;;;;;;5014712;28;20460;-51
2020/12/30 20:08:28;;;;;;;6.13;3.75;;;7.60;83.10;;;;;;5027079;28;20029;-50
2020/12/30 20:10:54;;;;;;;9.50;4.32;;;7.60;83.10;;;;;;5027278;28;20029;-50
2020/12/30 20:13:20;;;;;;;8.98;4.47;;;7.60;83.10;;;;;;5025304;28;20068;-51
2020/12/30 20:15:45;;;;;;;6.00;3.90;;;7.60;83.10;;;;;;5023551;28;20390;-51
2020/12/30 20:18:11;;;;;;;4.85;3.40;;;7.60;83.10;;;;;;5022778;28;20406;-51
2020/12/30 20:20:37;;;;;;;7.65;4.03;;;7.60;83.10;;;;;;5011065;28;20032;-50
2020/12/30 20:23:03;;;;;;;6.25;4.20;;;7.60;83.20;;;;;;5022988;28;20026;-50
2020/12/30 20:25:29;;;;;;;10.05;5.10;;;7.60;83.20;;;;;;5023353;28;20131;-50
2020/12/30 20:27:54;;;;;;;11.52;6.07;;;7.60;83.20;;;;;;5024814;28;20146;-51
2020/12/30 20:30:20;;;;;;;12.07;4.82;;;7.60;83.20;;;;;;5027333;28;20149;-50
2020/12/30 20:32:49;;;;;;;8.27;3.40;;;7.60;83.20;;;;;;5026227;28;20029;-50
2020/12/30 20:35:16;;;;;;;10.57;4.43;;;7.60;83.30;;;;;;5024185;28;20026;-51
2020/12/30 20:37:46;;;;;;;11.20;5.25;;;7.60;83.30;;;;;;5026983;28;20469;-51
2020/12/30 20:40:13;;;;;;;7.53;4.03;;;7.60;83.30;;;;;;5020929;28;20044;-51
2020/12/30 20:42:39;;;;;;;10.57;4.95;;;7.60;83.30;;;;;;5026176;28;20332;-50
2020/12/30 20:45:08;;;;;;;12.57;5.57;;;7.60;83.30;;;;;;5022340;28;20656;-51
2020/12/30 20:47:34;;;;;;;6.75;4.53;;;7.60;83.30;;;;;;5028387;28;20439;-50
2020/12/30 20:49:59;;;;;;;16.35;5.45;;;7.60;83.30;;;;;;5024952;28;20039;-50
2020/12/30 20:52:25;;;;;;;12.48;6.43;;;7.60;83.30;;;;;;5023174;28;20017;-51
2020/12/30 20:54:51;;;;;;;8.90;5.43;;;7.60;84.10;;;;;;5025189;28;20397;-51
2020/12/30 20:57:16;;;;;;;9.55;4.55;;;7.60;83.30;;;;;;5023589;28;20044;-50
2020/12/30 20:59:42;;;;;;;10.35;5.28;;;7.60;83.40;;;;;;5016551;28;20444;-51
2020/12/30 21:02:08;;;;;;;14.73;6.00;;;7.60;83.40;;;;;;4994634;28;20535;-50
2020/12/30 21:04:33;;;;;;;10.07;4.90;;;7.60;83.40;;;;;;4996090;28;20034;-50
2020/12/30 21:06:59;;;;;;;15.13;5.28;;;7.60;83.40;;;;;;5011320;28;20072;-51
2020/12/30 21:09:24;;;;;;;10.40;4.05;;;7.60;83.40;;;;;;5014805;28;20097;-50
2020/12/30 21:11:50;;;;;;;11.05;4.28;;;7.60;83.50;;;;;;5014140;28;20054;-51
2020/12/30 21:14:16;;;;;;;10.63;4.95;;;7.60;83.40;;;;;;5014280;28;20390;-50
2020/12/30 21:16:42;;;;;;;9.50;4.75;;;7.60;83.50;;;;;;4998194;28;20037;-51
2020/12/30 21:19:08;;;;;;;8.55;4.35;;;7.60;83.50;;;;;;4994600;28;20682;-51
2020/12/30 21:21:34;;;;;;;9.48;4.68;;;7.70;83.50;;;;;;4993215;28;20495;-51
2020/12/30 21:23:59;;;;;;;8.20;4.88;;;7.60;83.50;;;;;;4994461;28;20038;-51
2020/12/30 21:26:25;;;;;;;9.65;5.47;;;7.60;83.50;;;;;;4998195;28;20026;-50
2020/12/30 21:28:51;;;;;;;21.33;4.80;;;7.60;83.60;;;;;;5014003;28;20370;-50
2020/12/30 21:31:17;;;;;;;9.90;4.70;;;7.60;83.50;;;;;;4999925;28;20030;-51
2020/12/30 21:33:44;;;;;;;6.00;3.40;;;7.60;83.50;;;;;;5003794;28;20041;-50
2020/12/30 21:36:11;;;;;;;9.40;4.53;;;7.60;83.60;;;;;;5001725;28;20037;-50
2020/12/30 21:38:44;;;;;;;6.75;3.53;;;7.60;83.50;;;;;;5002972;28;20117;-51
2020/12/30 21:41:17;;;;;;;9.60;4.30;;;7.60;83.50;;;;;;5003822;28;20022;-51
2020/12/30 21:43:44;;;;;;;12.13;4.78;;;7.60;83.60;;;;;;5002928;28;20519;-50
2020/12/30 21:46:17;;;;;;;7.95;4.07;;;7.60;83.50;;;;;;5001808;28;20415;-51
2020/12/30 21:48:43;;;;;;;10.93;4.80;;;7.60;83.60;;;;;;5000887;28;20033;-51
2020/12/30 21:51:13;;;;;;;8.02;4.03;;;7.60;83.60;;;;;;5002033;28;20355;-51
2020/12/30 21:53:39;;;;;;;5.55;4.25;;;7.60;83.60;;;;;;5010379;28;20122;-51
2020/12/30 21:56:13;;;;;;;8.52;4.05;;;7.60;83.60;;;;;;5020489;28;20018;-50
2020/12/30 21:58:40;;;;;;;7.00;4.18;;;7.60;83.60;;;;;;5009504;28;20045;-50
2020/12/30 22:01:08;;;;;;;7.20;3.90;;;7.60;83.60;;;;;;5024971;28;20029;-51
2020/12/30 22:03:33;;;;;;;8.18;4.40;;;7.60;83.60;;;;;;5025110;28;20033;-51
2020/12/30 22:06:01;;;;;;;10.07;4.35;;;7.60;83.60;;;;;;5024482;28;20024;-51
2020/12/30 22:08:27;;;;;;;6.68;3.72;;;7.60;83.60;;;;;;5002411;28;20034;-50
2020/12/30 22:10:52;;;;;;;8.70;3.95;;;7.60;83.60;;;;;;5013512;28;20093;-50
2020/12/30 22:13:18;;;;;;;6.97;4.13;;;7.60;83.70;;;;;;5012738;28;20038;-51
2020/12/30 22:15:43;;;;;;;6.00;3.80;;;7.60;83.70;;;;;;5013685;28;20076;-51
2020/12/30 22:18:09;;;;;;;10.52;4.45;;;7.60;84.40;;;;;;5013579;28;20078;-51
2020/12/30 22:20:35;;;;;;;6.88;4.28;;;7.60;83.70;;;;;;5013599;28;20032;-51
2020/12/30 22:23:00;;;;;;;8.77;3.40;;;7.60;83.70;;;;;;5004130;28;20530;-51
2020/12/30 22:25:26;;;;;;;6.30;3.72;;;7.60;83.70;;;;;;4994069;28;20027;-50
2020/12/30 22:27:52;;;;;;;7.97;3.72;;;7.60;83.70;;;;;;4993328;28;20467;-50
2020/12/30 22:30:17;;;;;;;10.98;4.95;;;7.60;83.80;;;;;;5004595;28;20010;-51
2020/12/30 22:32:43;;;;;;;6.65;4.45;;;7.60;83.80;;;;;;5006885;28;20452;-50
2020/12/30 22:35:09;;;;;;;7.00;3.72;;;7.60;83.80;;;;;;4993699;28;20049;-51
2020/12/30 22:37:34;;;;;;;9.52;4.25;;;7.60;83.80;;;;;;4992390;28;20031;-51
2020/12/30 22:40:00;;;;;;;9.70;5.15;;;7.60;83.80;;;;;;4993564;28;20452;-51
2020/12/30 22:42:25;;;;;;;10.00;5.10;;;7.60;83.80;;;;;;4997067;28;20025;-50
2020/12/30 22:44:51;;;;;;;8.10;5.22;;;7.60;83.80;;;;;;5013096;28;20034;-51
2020/12/30 22:47:17;;;;;;;7.55;5.07;;;7.60;83.80;;;;;;5013285;28;20030;-51
2020/12/30 22:49:43;;;;;;;9.23;5.32;;;7.60;83.80;;;;;;5013329;28;20112;-51
2020/12/30 22:52:09;;;;;;;10.50;4.60;;;7.60;83.80;;;;;;5011733;28;20469;-51
2020/12/30 22:54:34;;;;;;;5.88;4.18;;;7.60;83.80;;;;;;5012253;28;20500;-51
2020/12/30 22:57:00;;;;;;;6.95;4.63;;;7.60;83.90;;;;;;5012831;28;20065;-50
2020/12/30 22:59:26;;;;;;;6.72;4.03;;;7.60;83.90;;;;;;5014212;28;20113;-51
2020/12/30 23:01:52;;;;;;;7.38;4.68;;;7.60;84.00;;;;;;5002785;28;20407;-51
2020/12/30 23:04:18;;;;;;;6.97;4.05;;;7.60;83.90;;;;;;5015269;28;20414;-50
2020/12/30 23:06:44;;;;;;;7.30;4.25;;;7.60;83.90;;;;;;5015241;28;20125;-51
2020/12/30 23:09:10;;;;;;;7.97;4.10;;;7.60;83.90;;;;;;5016882;28;20507;-51
2020/12/30 23:11:43;;;;;;;6.10;4.00;;;7.60;83.90;;;;;;5016422;28;20034;-51
2020/12/30 23:14:10;;;;;;;5.65;3.45;;;7.60;84.00;;;;;;5016851;28;20050;-50
2020/12/30 23:16:36;;;;;;;9.75;4.18;;;7.60;84.00;;;;;;5016669;28;20026;-51
2020/12/30 23:19:04;;;;;;;5.10;3.42;;;7.50;83.90;;;;;;5016864;28;20374;-51
2020/12/30 23:21:30;;;;;;;7.40;4.15;;;7.50;83.90;;;;;;5016331;28;20033;-51
2020/12/30 23:23:56;;;;;;;7.85;4.57;;;7.60;84.00;;;;;;5001453;28;20406;-51
2020/12/30 23:26:21;;;;;;;8.07;5.28;;;7.60;84.00;;;;;;5005374;28;20084;-51
2020/12/30 23:28:47;;;;;;;7.60;3.80;;;7.50;84.00;;;;;;5016629;28;20040;-51
2020/12/30 23:31:13;;;;;;;4.57;3.35;;;7.50;84.00;;;;;;4997575;28;20022;-51
2020/12/30 23:33:38;;;;;;;5.50;3.00;;;7.60;84.10;;;;;;5012013;28;20141;-51
2020/12/30 23:36:04;;;;;;;5.25;3.22;;;7.50;84.00;;;;;;5016690;28;20328;-51
2020/12/30 23:38:34;;;;;;;5.72;3.75;;;7.50;84.00;;;;;;5016455;28;20053;-50
2020/12/30 23:41:00;;;;;;;10.20;4.10;;;7.50;84.00;;;;;;5016386;28;20137;-51
2020/12/30 23:43:26;;;;;;;7.10;4.38;;;7.50;84.10;;;;;;5001953;28;20121;-51
2020/12/30 23:45:51;;;;;;;8.90;4.13;;;7.50;84.00;;;;;;4996853;28;20061;-51
2020/12/30 23:48:17;;;;;;;9.15;4.50;;;7.50;84.10;;;;;;4996826;28;20026;-51
2020/12/30 23:50:43;;;;;;;6.93;4.32;;;7.50;84.10;;;;;;4996519;28;20069;-51
2020/12/30 23:53:09;;;;;;;6.03;3.78;;;7.50;84.10;;;;;;5007215;28;20080;-50
2020/12/30 23:55:34;;;;;;;5.93;4.10;;;7.50;84.20;;;;;;5016028;28;20033;-50
2020/12/30 23:58:00;;;;;;;6.55;3.80;;;7.50;84.20;;;;;;5004820;28;20048;-51
